sensor_id;sensor_type;location;lat;lon;timestamp;P1;durP1;ratioP1;P2;durP2;ratioP2
21166;SDS011;10741;52.272;9.580;2022-10-12T00:00:10;7.00;;;1.63;;
21166;SDS011;10741;52.272;9.580;2022-10-12T00:02:36;3.57;;;1.23;;
21166;SDS011;10741;52.272;9.580;2022-10-12T00:05:02;6.80;;;1.50;;
21166;SDS011;10741;52.272;9.580;2022-10-12T00:07:27;4.40;;;1.50;;
21166;SDS011;10741;52.272;9.580;2022-10-12T00:09:53;7.07;;;1.60;;
21166;SDS011;10741;52.272;9.580;2022-10-12T00:12:19;7.23;;;1.60;;
21166;SDS011;10741;52.272;9.580;2022-10-12T00:14:44;5.90;;;1.43;;
21166;SDS011;10741;52.272;9.580;2022-10-12T00:17:10;10.73;;;1.80;;
21166;SDS011;10741;52.272;9.580;2022-10-12T00:19:36;16.73;;;1.60;;
21166;SDS011;10741;52.272;9.580;2022-10-12T00:22:03;5.47;;;1.47;;
21166;SDS011;10741;52.272;9.580;2022-10-12T00:24:28;6.20;;;1.47;;
21166;SDS011;10741;52.272;9.580;2022-10-12T00:26:54;5.73;;;1.47;;
21166;SDS011;10741;52.272;9.580;2022-10-12T00:29:20;4.63;;;1.60;;
21166;SDS011;10741;52.272;9.580;2022-10-12T00:31:46;9.17;;;1.37;;
21166;SDS011;10741;52.272;9.580;2022-10-12T00:34:11;5.63;;;1.40;;
21166;SDS011;10741;52.272;9.580;2022-10-12T00:36:37;5.67;;;1.40;;
21166;SDS011;10741;52.272;9.580;2022-10-12T00:39:04;5.90;;;1.43;;
21166;SDS011;10741;52.272;9.580;2022-10-12T00:41:32;8.27;;;1.50;;
21166;SDS011;10741;52.272;9.580;2022-10-12T00:44:00;7.13;;;1.43;;
21166;SDS011;10741;52.272;9.580;2022-10-12T00:46:36;6.17;;;1.67;;
21166;SDS011;10741;52.272;9.580;2022-10-12T00:51:39;5.67;;;1.53;;
21166;SDS011;10741;52.272;9.580;2022-10-12T00:54:07;7.07;;;1.43;;
21166;SDS011;10741;52.272;9.580;2022-10-12T00:56:37;8.90;;;1.50;;
21166;SDS011;10741;52.272;9.580;2022-10-12T00:59:07;2.93;;;1.20;;
21166;SDS011;10741;52.272;9.580;2022-10-12T01:01:36;3.03;;;1.53;;
21166;SDS011;10741;52.272;9.580;2022-10-12T01:04:03;10.23;;;1.30;;
21166;SDS011;10741;52.272;9.580;2022-10-12T01:06:31;2.57;;;1.13;;
21166;SDS011;10741;52.272;9.580;2022-10-12T01:08:58;8.40;;;1.60;;
21166;SDS011;10741;52.272;9.580;2022-10-12T01:11:24;4.90;;;1.50;;
21166;SDS011;10741;52.272;9.580;2022-10-12T01:13:50;2.70;;;1.30;;
21166;SDS011;10741;52.272;9.580;2022-10-12T01:22:06;4.97;;;1.30;;
21166;SDS011;10741;52.272;9.580;2022-10-12T01:40:41;7.37;;;1.40;;
21166;SDS011;10741;52.272;9.580;2022-10-12T01:43:20;6.37;;;1.30;;
21166;SDS011;10741;52.272;9.580;2022-10-12T01:45:47;4.33;;;1.23;;
21166;SDS011;10741;52.272;9.580;2022-10-12T01:48:13;3.00;;;1.30;;
21166;SDS011;10741;52.272;9.580;2022-10-12T01:50:47;4.03;;;1.50;;
21166;SDS011;10741;52.272;9.580;2022-10-12T02:04:10;5.93;;;1.50;;
21166;SDS011;10741;52.272;9.580;2022-10-12T02:06:45;4.60;;;1.20;;
21166;SDS011;10741;52.272;9.580;2022-10-12T02:09:25;9.47;;;1.47;;
21166;SDS011;10741;52.272;9.580;2022-10-12T02:11:53;3.57;;;1.40;;
21166;SDS011;10741;52.272;9.580;2022-10-12T02:14:23;2.93;;;1.03;;
21166;SDS011;10741;52.272;9.580;2022-10-12T02:16:57;3.87;;;1.13;;
21166;SDS011;10741;52.272;9.580;2022-10-12T02:19:27;4.17;;;1.50;;
21166;SDS011;10741;52.272;9.580;2022-10-12T02:21:55;3.17;;;1.27;;
21166;SDS011;10741;52.272;9.580;2022-10-12T02:24:26;6.53;;;1.43;;
21166;SDS011;10741;52.272;9.580;2022-10-12T02:26:54;3.83;;;1.20;;
21166;SDS011;10741;52.272;9.580;2022-10-12T02:29:26;6.07;;;1.27;;
21166;SDS011;10741;52.272;9.580;2022-10-12T02:32:12;5.67;;;1.80;;
21166;SDS011;10741;52.272;9.580;2022-10-12T02:35:36;5.73;;;1.33;;
21166;SDS011;10741;52.272;9.580;2022-10-12T02:37:55;5.23;;;1.67;;
21166;SDS011;10741;52.272;9.580;2022-10-12T02:40:39;5.60;;;2.73;;
21166;SDS011;10741;52.272;9.580;2022-10-12T02:43:22;8.20;;;1.50;;
21166;SDS011;10741;52.272;9.580;2022-10-12T02:46:10;3.50;;;1.53;;
21166;SDS011;10741;52.272;9.580;2022-10-12T02:48:37;3.17;;;1.30;;
21166;SDS011;10741;52.272;9.580;2022-10-12T02:51:05;3.83;;;1.47;;
21166;SDS011;10741;52.272;9.580;2022-10-12T02:53:32;6.97;;;1.43;;
21166;SDS011;10741;52.272;9.580;2022-10-12T02:55:59;4.60;;;1.20;;
21166;SDS011;10741;52.272;9.580;2022-10-12T02:58:29;4.33;;;1.30;;
21166;SDS011;10741;52.272;9.580;2022-10-12T03:00:55;6.30;;;1.33;;
21166;SDS011;10741;52.272;9.580;2022-10-12T03:03:20;7.23;;;1.27;;
21166;SDS011;10741;52.272;9.580;2022-10-12T03:05:46;5.97;;;1.50;;
21166;SDS011;10741;52.272;9.580;2022-10-12T03:08:12;4.23;;;1.30;;
21166;SDS011;10741;52.272;9.580;2022-10-12T03:10:38;5.87;;;1.40;;
21166;SDS011;10741;52.272;9.580;2022-10-12T03:13:03;2.43;;;1.27;;
21166;SDS011;10741;52.272;9.580;2022-10-12T03:15:29;2.77;;;1.10;;
21166;SDS011;10741;52.272;9.580;2022-10-12T03:17:55;2.57;;;1.20;;
21166;SDS011;10741;52.272;9.580;2022-10-12T03:20:21;6.30;;;1.30;;
21166;SDS011;10741;52.272;9.580;2022-10-12T03:22:47;7.17;;;1.50;;
21166;SDS011;10741;52.272;9.580;2022-10-12T03:25:14;4.30;;;1.30;;
21166;SDS011;10741;52.272;9.580;2022-10-12T03:27:40;6.27;;;1.40;;
21166;SDS011;10741;52.272;9.580;2022-10-12T03:30:05;3.93;;;1.43;;
21166;SDS011;10741;52.272;9.580;2022-10-12T03:32:32;6.97;;;1.60;;
21166;SDS011;10741;52.272;9.580;2022-10-12T03:34:57;5.37;;;1.70;;
21166;SDS011;10741;52.272;9.580;2022-10-12T03:37:23;5.00;;;1.63;;
21166;SDS011;10741;52.272;9.580;2022-10-12T03:39:49;5.60;;;1.50;;
21166;SDS011;10741;52.272;9.580;2022-10-12T03:42:14;7.37;;;1.53;;
21166;SDS011;10741;52.272;9.580;2022-10-12T03:44:40;4.43;;;1.53;;
21166;SDS011;10741;52.272;9.580;2022-10-12T03:47:06;2.93;;;1.47;;
21166;SDS011;10741;52.272;9.580;2022-10-12T03:49:32;4.60;;;1.30;;
21166;SDS011;10741;52.272;9.580;2022-10-12T03:51:57;5.93;;;1.47;;
21166;SDS011;10741;52.272;9.580;2022-10-12T03:54:23;7.67;;;1.80;;
21166;SDS011;10741;52.272;9.580;2022-10-12T03:56:49;4.70;;;1.43;;
21166;SDS011;10741;52.272;9.580;2022-10-12T03:59:14;9.13;;;1.80;;
21166;SDS011;10741;52.272;9.580;2022-10-12T04:01:40;5.43;;;1.50;;
21166;SDS011;10741;52.272;9.580;2022-10-12T04:04:06;6.10;;;1.80;;
21166;SDS011;10741;52.272;9.580;2022-10-12T04:06:32;7.93;;;2.20;;
21166;SDS011;10741;52.272;9.580;2022-10-12T04:08:57;5.37;;;2.10;;
21166;SDS011;10741;52.272;9.580;2022-10-12T04:11:23;14.40;;;2.57;;
21166;SDS011;10741;52.272;9.580;2022-10-12T04:13:49;9.07;;;2.23;;
21166;SDS011;10741;52.272;9.580;2022-10-12T04:16:14;8.07;;;2.17;;
21166;SDS011;10741;52.272;9.580;2022-10-12T04:18:40;5.20;;;2.27;;
21166;SDS011;10741;52.272;9.580;2022-10-12T04:21:08;4.53;;;2.10;;
21166;SDS011;10741;52.272;9.580;2022-10-12T04:23:38;4.37;;;1.53;;
21166;SDS011;10741;52.272;9.580;2022-10-12T04:26:04;8.17;;;1.90;;
21166;SDS011;10741;52.272;9.580;2022-10-12T04:28:30;5.77;;;2.30;;
21166;SDS011;10741;52.272;9.580;2022-10-12T04:30:56;4.53;;;1.90;;
21166;SDS011;10741;52.272;9.580;2022-10-12T04:33:21;6.37;;;2.37;;
21166;SDS011;10741;52.272;9.580;2022-10-12T04:35:47;4.20;;;1.60;;
21166;SDS011;10741;52.272;9.580;2022-10-12T04:38:13;5.33;;;2.07;;
21166;SDS011;10741;52.272;9.580;2022-10-12T04:40:39;4.57;;;1.90;;
21166;SDS011;10741;52.272;9.580;2022-10-12T04:43:04;2.60;;;1.77;;
21166;SDS011;10741;52.272;9.580;2022-10-12T04:45:30;5.03;;;1.90;;
21166;SDS011;10741;52.272;9.580;2022-10-12T04:47:56;7.63;;;1.90;;
21166;SDS011;10741;52.272;9.580;2022-10-12T04:50:22;2.93;;;1.67;;
21166;SDS011;10741;52.272;9.580;2022-10-12T04:52:47;6.63;;;2.00;;
21166;SDS011;10741;52.272;9.580;2022-10-12T04:55:13;3.50;;;1.90;;
21166;SDS011;10741;52.272;9.580;2022-10-12T04:57:39;4.47;;;1.83;;
21166;SDS011;10741;52.272;9.580;2022-10-12T05:00:05;5.43;;;1.77;;
21166;SDS011;10741;52.272;9.580;2022-10-12T05:02:32;4.07;;;1.43;;
21166;SDS011;10741;52.272;9.580;2022-10-12T05:04:58;5.07;;;1.50;;
21166;SDS011;10741;52.272;9.580;2022-10-12T05:07:23;4.47;;;1.63;;
21166;SDS011;10741;52.272;9.580;2022-10-12T05:09:49;3.33;;;1.40;;
21166;SDS011;10741;52.272;9.580;2022-10-12T05:12:15;6.37;;;1.37;;
21166;SDS011;10741;52.272;9.580;2022-10-12T05:14:42;3.90;;;1.50;;
21166;SDS011;10741;52.272;9.580;2022-10-12T05:17:08;2.50;;;1.30;;
21166;SDS011;10741;52.272;9.580;2022-10-12T05:19:34;5.73;;;1.50;;
21166;SDS011;10741;52.272;9.580;2022-10-12T05:22:00;3.50;;;1.30;;
21166;SDS011;10741;52.272;9.580;2022-10-12T05:24:26;2.50;;;1.87;;
21166;SDS011;10741;52.272;9.580;2022-10-12T05:26:52;4.30;;;1.93;;
21166;SDS011;10741;52.272;9.580;2022-10-12T05:29:18;3.13;;;2.07;;
21166;SDS011;10741;52.272;9.580;2022-10-12T05:31:44;7.43;;;2.03;;
21166;SDS011;10741;52.272;9.580;2022-10-12T05:34:09;3.13;;;1.93;;
21166;SDS011;10741;52.272;9.580;2022-10-12T05:36:35;5.40;;;2.00;;
21166;SDS011;10741;52.272;9.580;2022-10-12T05:39:01;5.60;;;2.33;;
21166;SDS011;10741;52.272;9.580;2022-10-12T05:41:27;6.10;;;2.50;;
21166;SDS011;10741;52.272;9.580;2022-10-12T05:43:53;9.57;;;2.30;;
21166;SDS011;10741;52.272;9.580;2022-10-12T05:46:19;4.07;;;2.30;;
21166;SDS011;10741;52.272;9.580;2022-10-12T05:48:45;4.17;;;2.50;;
21166;SDS011;10741;52.272;9.580;2022-10-12T05:51:10;6.90;;;2.50;;
21166;SDS011;10741;52.272;9.580;2022-10-12T05:53:36;4.30;;;2.53;;
21166;SDS011;10741;52.272;9.580;2022-10-12T05:56:02;4.47;;;2.70;;
21166;SDS011;10741;52.272;9.580;2022-10-12T05:58:28;4.57;;;2.20;;
21166;SDS011;10741;52.272;9.580;2022-10-12T06:00:54;5.93;;;2.10;;
21166;SDS011;10741;52.272;9.580;2022-10-12T06:03:28;3.43;;;2.40;;
21166;SDS011;10741;52.272;9.580;2022-10-12T06:05:54;4.70;;;2.63;;
21166;SDS011;10741;52.272;9.580;2022-10-12T06:08:20;4.93;;;2.50;;
21166;SDS011;10741;52.272;9.580;2022-10-12T06:10:48;10.00;;;2.50;;
21166;SDS011;10741;52.272;9.580;2022-10-12T06:13:15;5.53;;;2.57;;
21166;SDS011;10741;52.272;9.580;2022-10-12T06:15:45;4.67;;;2.30;;
21166;SDS011;10741;52.272;9.580;2022-10-12T06:18:12;4.60;;;2.60;;
21166;SDS011;10741;52.272;9.580;2022-10-12T06:20:39;5.77;;;2.97;;
21166;SDS011;10741;52.272;9.580;2022-10-12T06:23:04;6.80;;;2.70;;
21166;SDS011;10741;52.272;9.580;2022-10-12T06:25:30;6.53;;;2.70;;
21166;SDS011;10741;52.272;9.580;2022-10-12T06:27:56;5.87;;;2.90;;
21166;SDS011;10741;52.272;9.580;2022-10-12T06:30:22;6.27;;;3.00;;
21166;SDS011;10741;52.272;9.580;2022-10-12T06:32:47;7.40;;;2.77;;
21166;SDS011;10741;52.272;9.580;2022-10-12T06:35:13;8.13;;;2.77;;
21166;SDS011;10741;52.272;9.580;2022-10-12T06:37:39;7.57;;;3.10;;
21166;SDS011;10741;52.272;9.580;2022-10-12T06:40:05;6.53;;;3.47;;
21166;SDS011;10741;52.272;9.580;2022-10-12T06:42:31;11.93;;;3.73;;
21166;SDS011;10741;52.272;9.580;2022-10-12T06:44:57;6.63;;;3.40;;
21166;SDS011;10741;52.272;9.580;2022-10-12T06:47:22;8.30;;;3.13;;
21166;SDS011;10741;52.272;9.580;2022-10-12T06:49:48;9.17;;;3.33;;
21166;SDS011;10741;52.272;9.580;2022-10-12T06:52:14;13.00;;;3.77;;
21166;SDS011;10741;52.272;9.580;2022-10-12T06:54:40;8.60;;;3.40;;
21166;SDS011;10741;52.272;9.580;2022-10-12T06:57:05;11.10;;;3.77;;
21166;SDS011;10741;52.272;9.580;2022-10-12T06:59:31;10.30;;;3.87;;
21166;SDS011;10741;52.272;9.580;2022-10-12T07:01:57;13.80;;;4.30;;
21166;SDS011;10741;52.272;9.580;2022-10-12T07:04:23;6.63;;;3.30;;
21166;SDS011;10741;52.272;9.580;2022-10-12T07:06:48;10.73;;;3.80;;
21166;SDS011;10741;52.272;9.580;2022-10-12T07:09:15;8.20;;;3.43;;
21166;SDS011;10741;52.272;9.580;2022-10-12T07:11:41;12.63;;;3.47;;
21166;SDS011;10741;52.272;9.580;2022-10-12T07:14:07;6.30;;;3.17;;
21166;SDS011;10741;52.272;9.580;2022-10-12T07:16:33;10.27;;;3.87;;
21166;SDS011;10741;52.272;9.580;2022-10-12T07:18:58;7.57;;;3.40;;
21166;SDS011;10741;52.272;9.580;2022-10-12T07:21:24;9.37;;;3.60;;
21166;SDS011;10741;52.272;9.580;2022-10-12T07:23:53;9.67;;;3.60;;
21166;SDS011;10741;52.272;9.580;2022-10-12T07:26:19;7.53;;;3.30;;
21166;SDS011;10741;52.272;9.580;2022-10-12T07:28:44;10.03;;;3.83;;
21166;SDS011;10741;52.272;9.580;2022-10-12T07:31:11;8.47;;;3.40;;
21166;SDS011;10741;52.272;9.580;2022-10-12T07:33:37;9.50;;;3.07;;
21166;SDS011;10741;52.272;9.580;2022-10-12T07:36:03;5.20;;;2.87;;
21166;SDS011;10741;52.272;9.580;2022-10-12T07:38:30;6.73;;;2.90;;
21166;SDS011;10741;52.272;9.580;2022-10-12T07:40:59;5.97;;;2.70;;
21166;SDS011;10741;52.272;9.580;2022-10-12T07:43:27;11.27;;;3.37;;
21166;SDS011;10741;52.272;9.580;2022-10-12T07:45:53;7.93;;;2.87;;
21166;SDS011;10741;52.272;9.580;2022-10-12T07:48:19;7.90;;;2.57;;
21166;SDS011;10741;52.272;9.580;2022-10-12T07:50:45;6.23;;;2.60;;
21166;SDS011;10741;52.272;9.580;2022-10-12T07:53:11;6.13;;;2.53;;
21166;SDS011;10741;52.272;9.580;2022-10-12T07:55:37;11.47;;;3.00;;
21166;SDS011;10741;52.272;9.580;2022-10-12T07:58:03;9.67;;;2.50;;
21166;SDS011;10741;52.272;9.580;2022-10-12T08:00:30;5.80;;;2.20;;
21166;SDS011;10741;52.272;9.580;2022-10-12T08:02:56;7.83;;;2.20;;
21166;SDS011;10741;52.272;9.580;2022-10-12T08:05:23;8.03;;;2.40;;
21166;SDS011;10741;52.272;9.580;2022-10-12T08:07:49;4.30;;;2.00;;
21166;SDS011;10741;52.272;9.580;2022-10-12T08:10:16;5.77;;;2.13;;
21166;SDS011;10741;52.272;9.580;2022-10-12T08:12:42;4.80;;;1.83;;
21166;SDS011;10741;52.272;9.580;2022-10-12T08:15:09;7.57;;;2.60;;
21166;SDS011;10741;52.272;9.580;2022-10-12T08:17:35;5.07;;;1.90;;
21166;SDS011;10741;52.272;9.580;2022-10-12T08:20:01;9.23;;;2.43;;
21166;SDS011;10741;52.272;9.580;2022-10-12T08:22:28;5.80;;;2.27;;
21166;SDS011;10741;52.272;9.580;2022-10-12T08:24:54;6.63;;;2.70;;
21166;SDS011;10741;52.272;9.580;2022-10-12T08:27:19;9.13;;;2.83;;
21166;SDS011;10741;52.272;9.580;2022-10-12T08:29:45;6.37;;;2.40;;
21166;SDS011;10741;52.272;9.580;2022-10-12T08:32:11;5.80;;;2.30;;
21166;SDS011;10741;52.272;9.580;2022-10-12T08:34:37;4.10;;;1.93;;
21166;SDS011;10741;52.272;9.580;2022-10-12T08:37:03;9.90;;;1.87;;
21166;SDS011;10741;52.272;9.580;2022-10-12T08:39:28;6.03;;;2.20;;
21166;SDS011;10741;52.272;9.580;2022-10-12T08:47:31;7.00;;;2.13;;
21166;SDS011;10741;52.272;9.580;2022-10-12T08:49:58;7.97;;;2.27;;
21166;SDS011;10741;52.272;9.580;2022-10-12T08:52:31;7.13;;;2.30;;
21166;SDS011;10741;52.272;9.580;2022-10-12T08:55:03;6.43;;;2.50;;
21166;SDS011;10741;52.272;9.580;2022-10-12T08:57:48;7.67;;;2.13;;
21166;SDS011;10741;52.272;9.580;2022-10-12T09:00:14;7.37;;;2.30;;
21166;SDS011;10741;52.272;9.580;2022-10-12T09:03:01;6.97;;;2.37;;
21166;SDS011;10741;52.272;9.580;2022-10-12T09:05:40;5.93;;;2.20;;
21166;SDS011;10741;52.272;9.580;2022-10-12T09:11:05;7.40;;;2.30;;
21166;SDS011;10741;52.272;9.580;2022-10-12T09:14:07;8.33;;;2.60;;
21166;SDS011;10741;52.272;9.580;2022-10-12T09:16:39;7.83;;;2.23;;
21166;SDS011;10741;52.272;9.580;2022-10-12T09:19:12;6.30;;;1.87;;
21166;SDS011;10741;52.272;9.580;2022-10-12T09:21:39;8.20;;;2.23;;
21166;SDS011;10741;52.272;9.580;2022-10-12T09:24:17;5.73;;;2.00;;
21166;SDS011;10741;52.272;9.580;2022-10-12T09:26:45;10.53;;;2.53;;
21166;SDS011;10741;52.272;9.580;2022-10-12T09:29:25;7.20;;;2.07;;
21166;SDS011;10741;52.272;9.580;2022-10-12T09:34:55;7.97;;;2.20;;
21166;SDS011;10741;52.272;9.580;2022-10-12T09:37:28;6.17;;;2.30;;
21166;SDS011;10741;52.272;9.580;2022-10-12T09:39:56;9.07;;;2.30;;
21166;SDS011;10741;52.272;9.580;2022-10-12T09:42:23;6.70;;;2.17;;
21166;SDS011;10741;52.272;9.580;2022-10-12T09:44:49;6.50;;;2.10;;
21166;SDS011;10741;52.272;9.580;2022-10-12T09:49:48;8.43;;;2.50;;
21166;SDS011;10741;52.272;9.580;2022-10-12T09:52:16;11.13;;;2.80;;
21166;SDS011;10741;52.272;9.580;2022-10-12T09:58:04;5.77;;;2.23;;
21166;SDS011;10741;52.272;9.580;2022-10-12T10:00:38;10.47;;;2.43;;
21166;SDS011;10741;52.272;9.580;2022-10-12T10:03:04;9.47;;;1.80;;
21166;SDS011;10741;52.272;9.580;2022-10-12T10:05:46;7.80;;;2.37;;
21166;SDS011;10741;52.272;9.580;2022-10-12T10:08:27;8.27;;;2.03;;
21166;SDS011;10741;52.272;9.580;2022-10-12T10:10:53;6.30;;;1.90;;
21166;SDS011;10741;52.272;9.580;2022-10-12T10:13:21;8.73;;;2.10;;
21166;SDS011;10741;52.272;9.580;2022-10-12T10:15:50;6.37;;;2.10;;
21166;SDS011;10741;52.272;9.580;2022-10-12T10:18:33;7.37;;;2.00;;
21166;SDS011;10741;52.272;9.580;2022-10-12T10:21:03;7.90;;;2.50;;
21166;SDS011;10741;52.272;9.580;2022-10-12T10:26:10;6.80;;;1.87;;
21166;SDS011;10741;52.272;9.580;2022-10-12T10:28:41;5.37;;;1.67;;
21166;SDS011;10741;52.272;9.580;2022-10-12T10:33:38;7.57;;;1.53;;
21166;SDS011;10741;52.272;9.580;2022-10-12T10:36:20;6.97;;;1.50;;
21166;SDS011;10741;52.272;9.580;2022-10-12T10:39:00;5.83;;;1.67;;
21166;SDS011;10741;52.272;9.580;2022-10-12T10:41:31;8.93;;;1.80;;
21166;SDS011;10741;52.272;9.580;2022-10-12T10:44:02;4.40;;;1.37;;
21166;SDS011;10741;52.272;9.580;2022-10-12T10:46:30;6.03;;;1.50;;
21166;SDS011;10741;52.272;9.580;2022-10-12T10:49:02;6.70;;;1.50;;
21166;SDS011;10741;52.272;9.580;2022-10-12T10:52:05;7.03;;;1.70;;
21166;SDS011;10741;52.272;9.580;2022-10-12T10:54:29;7.07;;;2.47;;
21166;SDS011;10741;52.272;9.580;2022-10-12T10:57:00;9.47;;;2.43;;
21166;SDS011;10741;52.272;9.580;2022-10-12T10:59:51;6.80;;;1.80;;
21166;SDS011;10741;52.272;9.580;2022-10-12T11:05:23;6.27;;;1.53;;
21166;SDS011;10741;52.272;9.580;2022-10-12T11:07:54;5.33;;;1.43;;
21166;SDS011;10741;52.272;9.580;2022-10-12T11:10:31;5.97;;;1.57;;
21166;SDS011;10741;52.272;9.580;2022-10-12T11:13:11;5.60;;;1.97;;
21166;SDS011;10741;52.272;9.580;2022-10-12T11:15:41;8.43;;;2.20;;
21166;SDS011;10741;52.272;9.580;2022-10-12T11:18:26;8.33;;;1.40;;
21166;SDS011;10741;52.272;9.580;2022-10-12T11:21:07;4.77;;;1.70;;
21166;SDS011;10741;52.272;9.580;2022-10-12T11:23:48;4.90;;;1.73;;
21166;SDS011;10741;52.272;9.580;2022-10-12T11:28:58;4.70;;;1.27;;
21166;SDS011;10741;52.272;9.580;2022-10-12T11:31:30;4.17;;;1.37;;
21166;SDS011;10741;52.272;9.580;2022-10-12T11:34:00;6.63;;;1.57;;
21166;SDS011;10741;52.272;9.580;2022-10-12T11:36:30;5.60;;;1.33;;
21166;SDS011;10741;52.272;9.580;2022-10-12T11:38:58;8.77;;;2.30;;
21166;SDS011;10741;52.272;9.580;2022-10-12T11:41:38;6.53;;;1.60;;
21166;SDS011;10741;52.272;9.580;2022-10-12T11:44:14;6.73;;;1.77;;
21166;SDS011;10741;52.272;9.580;2022-10-12T11:46:48;5.87;;;1.73;;
21166;SDS011;10741;52.272;9.580;2022-10-12T11:49:26;8.13;;;1.73;;
21166;SDS011;10741;52.272;9.580;2022-10-12T11:51:56;6.20;;;1.50;;
21166;SDS011;10741;52.272;9.580;2022-10-12T11:54:36;8.70;;;1.73;;
21166;SDS011;10741;52.272;9.580;2022-10-12T11:57:07;5.83;;;1.60;;
21166;SDS011;10741;52.272;9.580;2022-10-12T11:59:39;5.57;;;1.73;;
21166;SDS011;10741;52.272;9.580;2022-10-12T12:04:40;8.37;;;1.53;;
21166;SDS011;10741;52.272;9.580;2022-10-12T12:13:15;5.63;;;2.07;;
21166;SDS011;10741;52.272;9.580;2022-10-12T12:16:24;5.37;;;1.53;;
21166;SDS011;10741;52.272;9.580;2022-10-12T12:27:38;3.83;;;2.03;;
21166;SDS011;10741;52.272;9.580;2022-10-12T12:32:46;8.70;;;2.37;;
21166;SDS011;10741;52.272;9.580;2022-10-12T12:35:36;6.37;;;2.13;;
21166;SDS011;10741;52.272;9.580;2022-10-12T12:38:13;7.13;;;2.33;;
21166;SDS011;10741;52.272;9.580;2022-10-12T12:40:53;5.03;;;2.13;;
21166;SDS011;10741;52.272;9.580;2022-10-12T12:51:06;4.97;;;2.43;;
21166;SDS011;10741;52.272;9.580;2022-10-12T12:53:37;5.63;;;2.07;;
21166;SDS011;10741;52.272;9.580;2022-10-12T12:56:15;4.60;;;1.50;;
21166;SDS011;10741;52.272;9.580;2022-10-12T13:08:01;8.50;;;1.90;;
21166;SDS011;10741;52.272;9.580;2022-10-12T13:18:57;7.17;;;1.77;;
21166;SDS011;10741;52.272;9.580;2022-10-12T13:21:39;7.47;;;2.40;;
21166;SDS011;10741;52.272;9.580;2022-10-12T13:24:21;6.03;;;2.03;;
21166;SDS011;10741;52.272;9.580;2022-10-12T13:27:02;7.43;;;2.53;;
21166;SDS011;10741;52.272;9.580;2022-10-12T13:29:40;6.93;;;2.30;;
21166;SDS011;10741;52.272;9.580;2022-10-12T13:32:30;6.87;;;1.80;;
21166;SDS011;10741;52.272;9.580;2022-10-12T13:35:00;6.93;;;1.70;;
21166;SDS011;10741;52.272;9.580;2022-10-12T13:37:36;7.03;;;2.27;;
21166;SDS011;10741;52.272;9.580;2022-10-12T13:40:01;10.57;;;1.90;;
21166;SDS011;10741;52.272;9.580;2022-10-12T13:42:29;4.27;;;1.70;;
21166;SDS011;10741;52.272;9.580;2022-10-12T13:44:58;5.43;;;2.60;;
21166;SDS011;10741;52.272;9.580;2022-10-12T13:47:30;6.50;;;1.63;;
21166;SDS011;10741;52.272;9.580;2022-10-12T13:49:57;6.40;;;1.90;;
21166;SDS011;10741;52.272;9.580;2022-10-12T13:52:27;4.87;;;2.00;;
21166;SDS011;10741;52.272;9.580;2022-10-12T13:54:55;5.33;;;2.17;;
21166;SDS011;10741;52.272;9.580;2022-10-12T13:57:40;6.63;;;1.77;;
21166;SDS011;10741;52.272;9.580;2022-10-12T14:02:39;5.87;;;2.03;;
21166;SDS011;10741;52.272;9.580;2022-10-12T14:05:14;5.50;;;2.07;;
21166;SDS011;10741;52.272;9.580;2022-10-12T14:07:43;7.63;;;2.40;;
21166;SDS011;10741;52.272;9.580;2022-10-12T14:12:56;6.50;;;2.13;;
21166;SDS011;10741;52.272;9.580;2022-10-12T14:15:24;7.00;;;2.30;;
21166;SDS011;10741;52.272;9.580;2022-10-12T14:17:54;6.73;;;2.17;;
21166;SDS011;10741;52.272;9.580;2022-10-12T14:20:33;4.50;;;1.83;;
21166;SDS011;10741;52.272;9.580;2022-10-12T14:23:11;8.80;;;2.30;;
21166;SDS011;10741;52.272;9.580;2022-10-12T14:25:48;4.87;;;2.00;;
21166;SDS011;10741;52.272;9.580;2022-10-12T14:28:20;8.40;;;2.10;;
21166;SDS011;10741;52.272;9.580;2022-10-12T14:30:55;3.87;;;1.67;;
21166;SDS011;10741;52.272;9.580;2022-10-12T14:33:22;6.57;;;2.03;;
21166;SDS011;10741;52.272;9.580;2022-10-12T14:35:49;4.87;;;1.97;;
21166;SDS011;10741;52.272;9.580;2022-10-12T14:46:39;7.03;;;2.00;;
21166;SDS011;10741;52.272;9.580;2022-10-12T14:49:19;6.23;;;2.40;;
21166;SDS011;10741;52.272;9.580;2022-10-12T14:51:46;5.67;;;2.27;;
21166;SDS011;10741;52.272;9.580;2022-10-12T14:54:13;6.33;;;2.47;;
21166;SDS011;10741;52.272;9.580;2022-10-12T14:56:39;7.90;;;2.13;;
21166;SDS011;10741;52.272;9.580;2022-10-12T14:59:05;7.27;;;2.50;;
21166;SDS011;10741;52.272;9.580;2022-10-12T15:01:31;7.47;;;2.20;;
21166;SDS011;10741;52.272;9.580;2022-10-12T15:03:56;6.20;;;1.90;;
21166;SDS011;10741;52.272;9.580;2022-10-12T15:06:22;4.17;;;1.87;;
21166;SDS011;10741;52.272;9.580;2022-10-12T15:08:48;6.20;;;2.17;;
21166;SDS011;10741;52.272;9.580;2022-10-12T15:11:14;5.80;;;2.10;;
21166;SDS011;10741;52.272;9.580;2022-10-12T15:13:40;4.20;;;2.00;;
21166;SDS011;10741;52.272;9.580;2022-10-12T15:18:41;6.67;;;2.20;;
21166;SDS011;10741;52.272;9.580;2022-10-12T15:21:07;6.00;;;2.10;;
21166;SDS011;10741;52.272;9.580;2022-10-12T15:23:33;5.47;;;2.10;;
21166;SDS011;10741;52.272;9.580;2022-10-12T15:25:58;6.07;;;1.90;;
21166;SDS011;10741;52.272;9.580;2022-10-12T15:28:24;7.80;;;2.17;;
21166;SDS011;10741;52.272;9.580;2022-10-12T15:30:55;6.63;;;2.23;;
21166;SDS011;10741;52.272;9.580;2022-10-12T15:33:22;5.57;;;1.80;;
21166;SDS011;10741;52.272;9.580;2022-10-12T15:35:48;5.87;;;2.27;;
21166;SDS011;10741;52.272;9.580;2022-10-12T15:38:14;6.53;;;2.00;;
21166;SDS011;10741;52.272;9.580;2022-10-12T15:40:40;5.50;;;1.77;;
21166;SDS011;10741;52.272;9.580;2022-10-12T15:43:08;5.90;;;2.10;;
21166;SDS011;10741;52.272;9.580;2022-10-12T15:45:35;6.50;;;2.00;;
21166;SDS011;10741;52.272;9.580;2022-10-12T15:48:03;7.67;;;2.23;;
21166;SDS011;10741;52.272;9.580;2022-10-12T15:50:40;7.17;;;2.27;;
21166;SDS011;10741;52.272;9.580;2022-10-12T15:53:16;6.93;;;2.10;;
21166;SDS011;10741;52.272;9.580;2022-10-12T15:55:45;8.10;;;2.37;;
21166;SDS011;10741;52.272;9.580;2022-10-12T15:58:11;6.40;;;2.30;;
21166;SDS011;10741;52.272;9.580;2022-10-12T16:00:37;8.10;;;2.40;;
21166;SDS011;10741;52.272;9.580;2022-10-12T16:03:03;6.00;;;2.03;;
21166;SDS011;10741;52.272;9.580;2022-10-12T16:05:33;5.47;;;2.13;;
21166;SDS011;10741;52.272;9.580;2022-10-12T16:08:01;6.73;;;2.50;;
21166;SDS011;10741;52.272;9.580;2022-10-12T16:10:30;8.03;;;2.40;;
21166;SDS011;10741;52.272;9.580;2022-10-12T16:13:01;5.13;;;2.20;;
21166;SDS011;10741;52.272;9.580;2022-10-12T16:15:29;6.03;;;2.10;;
21166;SDS011;10741;52.272;9.580;2022-10-12T16:18:00;8.93;;;2.30;;
21166;SDS011;10741;52.272;9.580;2022-10-12T16:20:27;4.93;;;2.10;;
21166;SDS011;10741;52.272;9.580;2022-10-12T16:22:56;13.03;;;2.30;;
21166;SDS011;10741;52.272;9.580;2022-10-12T16:25:23;9.97;;;2.63;;
21166;SDS011;10741;52.272;9.580;2022-10-12T16:27:53;7.23;;;3.00;;
21166;SDS011;10741;52.272;9.580;2022-10-12T16:30:20;7.83;;;4.10;;
21166;SDS011;10741;52.272;9.580;2022-10-12T16:32:46;10.93;;;4.80;;
21166;SDS011;10741;52.272;9.580;2022-10-12T16:35:12;10.47;;;5.07;;
21166;SDS011;10741;52.272;9.580;2022-10-12T16:37:39;9.87;;;5.53;;
21166;SDS011;10741;52.272;9.580;2022-10-12T16:40:05;8.97;;;5.00;;
21166;SDS011;10741;52.272;9.580;2022-10-12T16:42:32;9.53;;;5.03;;
21166;SDS011;10741;52.272;9.580;2022-10-12T16:44:58;11.47;;;5.30;;
21166;SDS011;10741;52.272;9.580;2022-10-12T16:47:24;15.80;;;5.30;;
21166;SDS011;10741;52.272;9.580;2022-10-12T16:49:51;10.23;;;4.97;;
21166;SDS011;10741;52.272;9.580;2022-10-12T16:52:18;12.63;;;5.30;;
21166;SDS011;10741;52.272;9.580;2022-10-12T16:54:50;8.40;;;4.87;;
21166;SDS011;10741;52.272;9.580;2022-10-12T16:57:16;12.73;;;4.57;;
21166;SDS011;10741;52.272;9.580;2022-10-12T16:59:43;12.10;;;5.00;;
21166;SDS011;10741;52.272;9.580;2022-10-12T17:02:11;7.63;;;4.13;;